sensor_id;sensor_type;location;lat;lon;timestamp;P1;durP1;ratioP1;P2;durP2;ratioP2
40022;SDS011;25713;-35.352;149.036;2023-05-10T00:00:48;2.38;;;1.60;;
40022;SDS011;25713;-35.352;149.036;2023-05-10T00:03:18;3.55;;;2.00;;
40022;SDS011;25713;-35.352;149.036;2023-05-10T00:05:47;2.60;;;1.50;;
40022;SDS011;25713;-35.352;149.036;2023-05-10T00:08:17;2.63;;;1.65;;
40022;SDS011;25713;-35.352;149.036;2023-05-10T00:10:47;2.55;;;1.80;;
40022;SDS011;25713;-35.352;149.036;2023-05-10T00:13:16;1.80;;;1.50;;
40022;SDS011;25713;-35.352;149.036;2023-05-10T00:15:48;3.80;;;1.50;;
40022;SDS011;25713;-35.352;149.036;2023-05-10T00:18:17;2.47;;;1.80;;
40022;SDS011;25713;-35.352;149.036;2023-05-10T00:20:47;3.00;;;1.80;;
40022;SDS011;25713;-35.352;149.036;2023-05-10T00:23:16;2.35;;;1.60;;
40022;SDS011;25713;-35.352;149.036;2023-05-10T00:25:46;1.70;;;1.30;;
40022;SDS011;25713;-35.352;149.036;2023-05-10T00:28:15;2.95;;;1.50;;
40022;SDS011;25713;-35.352;149.036;2023-05-10T00:30:45;1.77;;;1.40;;
40022;SDS011;25713;-35.352;149.036;2023-05-10T00:33:16;2.70;;;1.70;;
40022;SDS011;25713;-35.352;149.036;2023-05-10T00:35:46;2.47;;;1.35;;
40022;SDS011;25713;-35.352;149.036;2023-05-10T00:38:16;2.55;;;1.50;;
40022;SDS011;25713;-35.352;149.036;2023-05-10T00:40:45;2.28;;;1.35;;
40022;SDS011;25713;-35.352;149.036;2023-05-10T00:43:23;4.35;;;1.40;;
40022;SDS011;25713;-35.352;149.036;2023-05-10T00:45:55;2.25;;;1.70;;
40022;SDS011;25713;-35.352;149.036;2023-05-10T00:48:25;2.43;;;1.63;;
40022;SDS011;25713;-35.352;149.036;2023-05-10T00:50:56;1.83;;;1.42;;
40022;SDS011;25713;-35.352;149.036;2023-05-10T00:53:25;3.35;;;1.58;;
40022;SDS011;25713;-35.352;149.036;2023-05-10T00:55:56;3.35;;;1.90;;
40022;SDS011;25713;-35.352;149.036;2023-05-10T00:58:26;2.05;;;1.30;;
40022;SDS011;25713;-35.352;149.036;2023-05-10T01:00:59;2.53;;;1.58;;
40022;SDS011;25713;-35.352;149.036;2023-05-10T01:03:29;1.98;;;1.42;;
40022;SDS011;25713;-35.352;149.036;2023-05-10T01:06:00;2.03;;;1.40;;
40022;SDS011;25713;-35.352;149.036;2023-05-10T01:08:30;2.55;;;1.38;;
40022;SDS011;25713;-35.352;149.036;2023-05-10T01:11:00;2.53;;;1.80;;
40022;SDS011;25713;-35.352;149.036;2023-05-10T01:13:30;1.98;;;1.52;;
40022;SDS011;25713;-35.352;149.036;2023-05-10T01:16:06;1.90;;;1.42;;
40022;SDS011;25713;-35.352;149.036;2023-05-10T01:18:36;2.28;;;1.60;;
40022;SDS011;25713;-35.352;149.036;2023-05-10T01:21:11;2.42;;;1.50;;
40022;SDS011;25713;-35.352;149.036;2023-05-10T01:23:57;2.05;;;1.48;;
40022;SDS011;25713;-35.352;149.036;2023-05-10T01:27:02;2.58;;;1.70;;
40022;SDS011;25713;-35.352;149.036;2023-05-10T01:33:21;2.90;;;1.77;;
40022;SDS011;25713;-35.352;149.036;2023-05-10T01:35:55;1.88;;;1.45;;
40022;SDS011;25713;-35.352;149.036;2023-05-10T01:38:33;1.85;;;1.40;;
40022;SDS011;25713;-35.352;149.036;2023-05-10T01:41:12;1.65;;;1.27;;
40022;SDS011;25713;-35.352;149.036;2023-05-10T01:43:47;2.05;;;1.63;;
40022;SDS011;25713;-35.352;149.036;2023-05-10T01:46:23;2.20;;;1.42;;
40022;SDS011;25713;-35.352;149.036;2023-05-10T01:49:00;2.10;;;1.67;;
40022;SDS011;25713;-35.352;149.036;2023-05-10T01:51:36;1.77;;;1.33;;
40022;SDS011;25713;-35.352;149.036;2023-05-10T01:54:09;1.83;;;1.33;;
40022;SDS011;25713;-35.352;149.036;2023-05-10T01:56:40;1.85;;;1.27;;
40022;SDS011;25713;-35.352;149.036;2023-05-10T01:59:12;2.35;;;1.63;;
40022;SDS011;25713;-35.352;149.036;2023-05-10T02:01:45;2.80;;;1.33;;
40022;SDS011;25713;-35.352;149.036;2023-05-10T02:04:18;1.95;;;1.42;;
40022;SDS011;25713;-35.352;149.036;2023-05-10T02:06:49;2.22;;;1.70;;
40022;SDS011;25713;-35.352;149.036;2023-05-10T02:11:52;2.05;;;1.20;;
40022;SDS011;25713;-35.352;149.036;2023-05-10T02:14:22;1.95;;;1.38;;
40022;SDS011;25713;-35.352;149.036;2023-05-10T02:16:53;2.00;;;1.40;;
40022;SDS011;25713;-35.352;149.036;2023-05-10T02:19:26;1.63;;;1.45;;
40022;SDS011;25713;-35.352;149.036;2023-05-10T02:21:58;2.63;;;1.50;;
40022;SDS011;25713;-35.352;149.036;2023-05-10T02:24:29;2.50;;;1.52;;
40022;SDS011;25713;-35.352;149.036;2023-05-10T02:27:01;2.25;;;1.50;;
40022;SDS011;25713;-35.352;149.036;2023-05-10T02:29:32;1.90;;;1.30;;
40022;SDS011;25713;-35.352;149.036;2023-05-10T02:32:03;1.83;;;1.40;;
40022;SDS011;25713;-35.352;149.036;2023-05-10T02:34:36;2.05;;;1.60;;
40022;SDS011;25713;-35.352;149.036;2023-05-10T02:37:07;2.30;;;1.50;;
40022;SDS011;25713;-35.352;149.036;2023-05-10T02:39:38;1.83;;;1.40;;
40022;SDS011;25713;-35.352;149.036;2023-05-10T02:42:08;1.40;;;1.27;;
40022;SDS011;25713;-35.352;149.036;2023-05-10T02:44:41;2.17;;;1.30;;
40022;SDS011;25713;-35.352;149.036;2023-05-10T02:47:15;2.08;;;1.58;;
40022;SDS011;25713;-35.352;149.036;2023-05-10T02:49:50;1.95;;;1.33;;
40022;SDS011;25713;-35.352;149.036;2023-05-10T02:52:23;2.42;;;1.20;;
40022;SDS011;25713;-35.352;149.036;2023-05-10T02:54:55;1.77;;;1.42;;
40022;SDS011;25713;-35.352;149.036;2023-05-10T02:57:28;1.85;;;1.30;;
40022;SDS011;25713;-35.352;149.036;2023-05-10T02:59:59;1.63;;;1.38;;
40022;SDS011;25713;-35.352;149.036;2023-05-10T03:02:30;1.92;;;1.60;;
40022;SDS011;25713;-35.352;149.036;2023-05-10T03:05:02;1.23;;;1.10;;
40022;SDS011;25713;-35.352;149.036;2023-05-10T03:07:32;2.25;;;1.48;;
40022;SDS011;25713;-35.352;149.036;2023-05-10T03:10:03;1.55;;;1.38;;
40022;SDS011;25713;-35.352;149.036;2023-05-10T03:12:40;2.08;;;1.50;;
40022;SDS011;25713;-35.352;149.036;2023-05-10T03:15:21;1.55;;;1.25;;
40022;SDS011;25713;-35.352;149.036;2023-05-10T03:18:01;2.25;;;1.50;;
40022;SDS011;25713;-35.352;149.036;2023-05-10T03:20:38;2.00;;;1.50;;
40022;SDS011;25713;-35.352;149.036;2023-05-10T03:23:12;1.63;;;1.30;;
40022;SDS011;25713;-35.352;149.036;2023-05-10T03:25:46;2.17;;;1.45;;
40022;SDS011;25713;-35.352;149.036;2023-05-10T03:28:18;1.73;;;1.20;;
40022;SDS011;25713;-35.352;149.036;2023-05-10T03:30:52;1.48;;;1.30;;
40022;SDS011;25713;-35.352;149.036;2023-05-10T03:33:23;1.63;;;1.30;;
40022;SDS011;25713;-35.352;149.036;2023-05-10T03:35:55;1.60;;;1.23;;
40022;SDS011;25713;-35.352;149.036;2023-05-10T03:38:25;1.33;;;1.20;;
40022;SDS011;25713;-35.352;149.036;2023-05-10T03:40:54;1.85;;;1.30;;
40022;SDS011;25713;-35.352;149.036;2023-05-10T03:43:24;1.88;;;1.10;;
40022;SDS011;25713;-35.352;149.036;2023-05-10T03:45:54;1.42;;;1.02;;
40022;SDS011;25713;-35.352;149.036;2023-05-10T03:48:23;1.60;;;1.40;;
40022;SDS011;25713;-35.352;149.036;2023-05-10T03:50:57;2.85;;;1.30;;
40022;SDS011;25713;-35.352;149.036;2023-05-10T03:53:27;2.03;;;1.20;;
40022;SDS011;25713;-35.352;149.036;2023-05-10T03:55:57;1.70;;;1.30;;
40022;SDS011;25713;-35.352;149.036;2023-05-10T03:58:27;2.30;;;1.38;;
40022;SDS011;25713;-35.352;149.036;2023-05-10T04:00:56;1.75;;;1.30;;
40022;SDS011;25713;-35.352;149.036;2023-05-10T04:03:25;1.60;;;1.20;;
40022;SDS011;25713;-35.352;149.036;2023-05-10T04:06:08;1.88;;;1.30;;
40022;SDS011;25713;-35.352;149.036;2023-05-10T04:08:38;1.80;;;1.00;;
40022;SDS011;25713;-35.352;149.036;2023-05-10T04:11:07;2.75;;;1.30;;
40022;SDS011;25713;-35.352;149.036;2023-05-10T04:13:38;2.13;;;1.40;;
40022;SDS011;25713;-35.352;149.036;2023-05-10T04:16:08;1.65;;;1.20;;
40022;SDS011;25713;-35.352;149.036;2023-05-10T04:18:38;1.27;;;1.00;;
40022;SDS011;25713;-35.352;149.036;2023-05-10T04:21:14;1.75;;;1.27;;
40022;SDS011;25713;-35.352;149.036;2023-05-10T04:23:44;1.60;;;1.30;;
40022;SDS011;25713;-35.352;149.036;2023-05-10T04:26:13;2.10;;;1.30;;
40022;SDS011;25713;-35.352;149.036;2023-05-10T04:28:43;1.70;;;1.25;;
40022;SDS011;25713;-35.352;149.036;2023-05-10T04:31:12;2.10;;;1.40;;
40022;SDS011;25713;-35.352;149.036;2023-05-10T04:33:41;1.83;;;1.35;;
40022;SDS011;25713;-35.352;149.036;2023-05-10T04:36:15;1.75;;;1.25;;
40022;SDS011;25713;-35.352;149.036;2023-05-10T04:38:45;4.30;;;1.20;;
40022;SDS011;25713;-35.352;149.036;2023-05-10T04:41:14;1.25;;;1.10;;
40022;SDS011;25713;-35.352;149.036;2023-05-10T04:43:44;1.50;;;1.30;;
40022;SDS011;25713;-35.352;149.036;2023-05-10T04:46:14;1.13;;;0.90;;
40022;SDS011;25713;-35.352;149.036;2023-05-10T04:48:43;3.65;;;1.42;;
40022;SDS011;25713;-35.352;149.036;2023-05-10T04:51:12;3.30;;;1.40;;
40022;SDS011;25713;-35.352;149.036;2023-05-10T04:53:45;1.20;;;0.98;;
40022;SDS011;25713;-35.352;149.036;2023-05-10T04:56:15;1.80;;;1.13;;
40022;SDS011;25713;-35.352;149.036;2023-05-10T04:58:44;1.60;;;1.20;;
40022;SDS011;25713;-35.352;149.036;2023-05-10T05:01:14;1.42;;;1.20;;
40022;SDS011;25713;-35.352;149.036;2023-05-10T05:03:43;1.80;;;1.23;;
40022;SDS011;25713;-35.352;149.036;2023-05-10T05:06:13;2.08;;;1.40;;
40022;SDS011;25713;-35.352;149.036;2023-05-10T05:08:45;1.27;;;1.00;;
40022;SDS011;25713;-35.352;149.036;2023-05-10T05:11:15;1.35;;;1.05;;
40022;SDS011;25713;-35.352;149.036;2023-05-10T05:13:45;1.48;;;1.25;;
40022;SDS011;25713;-35.352;149.036;2023-05-10T05:16:15;1.58;;;1.15;;
40022;SDS011;25713;-35.352;149.036;2023-05-10T05:18:44;3.97;;;1.38;;
40022;SDS011;25713;-35.352;149.036;2023-05-10T05:21:17;1.83;;;1.30;;
40022;SDS011;25713;-35.352;149.036;2023-05-10T05:23:47;1.77;;;1.10;;
40022;SDS011;25713;-35.352;149.036;2023-05-10T05:26:17;1.15;;;0.95;;
40022;SDS011;25713;-35.352;149.036;2023-05-10T05:28:46;1.42;;;1.20;;
40022;SDS011;25713;-35.352;149.036;2023-05-10T05:31:16;1.55;;;1.10;;
40022;SDS011;25713;-35.352;149.036;2023-05-10T05:33:45;1.35;;;1.10;;
40022;SDS011;25713;-35.352;149.036;2023-05-10T05:36:18;1.58;;;1.30;;
40022;SDS011;25713;-35.352;149.036;2023-05-10T05:38:48;1.50;;;1.20;;
40022;SDS011;25713;-35.352;149.036;2023-05-10T05:41:17;2.85;;;1.35;;
40022;SDS011;25713;-35.352;149.036;2023-05-10T05:43:46;2.20;;;1.27;;
40022;SDS011;25713;-35.352;149.036;2023-05-10T05:46:16;1.60;;;0.98;;
40022;SDS011;25713;-35.352;149.036;2023-05-10T05:48:45;1.30;;;1.20;;
40022;SDS011;25713;-35.352;149.036;2023-05-10T05:51:18;2.03;;;1.20;;
40022;SDS011;25713;-35.352;149.036;2023-05-10T05:56:16;1.98;;;1.48;;
40022;SDS011;25713;-35.352;149.036;2023-05-10T05:58:45;1.38;;;1.10;;
40022;SDS011;25713;-35.352;149.036;2023-05-10T06:01:15;1.58;;;1.17;;
40022;SDS011;25713;-35.352;149.036;2023-05-10T06:03:44;1.50;;;1.15;;
40022;SDS011;25713;-35.352;149.036;2023-05-10T06:06:14;1.50;;;1.10;;
40022;SDS011;25713;-35.352;149.036;2023-05-10T06:08:46;1.35;;;1.10;;
40022;SDS011;25713;-35.352;149.036;2023-05-10T06:11:16;1.48;;;1.20;;
40022;SDS011;25713;-35.352;149.036;2023-05-10T06:13:46;2.63;;;1.40;;
40022;SDS011;25713;-35.352;149.036;2023-05-10T06:16:15;1.50;;;1.10;;
40022;SDS011;25713;-35.352;149.036;2023-05-10T06:18:45;3.40;;;1.30;;
40022;SDS011;25713;-35.352;149.036;2023-05-10T06:21:14;3.25;;;1.20;;
40022;SDS011;25713;-35.352;149.036;2023-05-10T06:23:46;1.50;;;1.08;;
40022;SDS011;25713;-35.352;149.036;2023-05-10T06:26:16;1.20;;;0.93;;
40022;SDS011;25713;-35.352;149.036;2023-05-10T06:28:45;1.70;;;1.10;;
40022;SDS011;25713;-35.352;149.036;2023-05-10T06:31:14;1.60;;;1.10;;
40022;SDS011;25713;-35.352;149.036;2023-05-10T06:33:46;1.48;;;1.33;;
40022;SDS011;25713;-35.352;149.036;2023-05-10T06:36:18;2.95;;;1.25;;
40022;SDS011;25713;-35.352;149.036;2023-05-10T06:38:47;1.67;;;1.10;;
40022;SDS011;25713;-35.352;149.036;2023-05-10T06:41:17;1.40;;;1.30;;
40022;SDS011;25713;-35.352;149.036;2023-05-10T06:43:46;1.85;;;1.10;;
40022;SDS011;25713;-35.352;149.036;2023-05-10T06:46:16;1.67;;;1.20;;
40022;SDS011;25713;-35.352;149.036;2023-05-10T06:48:46;1.55;;;1.20;;
40022;SDS011;25713;-35.352;149.036;2023-05-10T06:51:15;2.28;;;1.08;;
40022;SDS011;25713;-35.352;149.036;2023-05-10T06:56:16;1.30;;;1.10;;
40022;SDS011;25713;-35.352;149.036;2023-05-10T06:58:45;2.08;;;1.40;;
40022;SDS011;25713;-35.352;149.036;2023-05-10T07:01:15;1.48;;;1.17;;
40022;SDS011;25713;-35.352;149.036;2023-05-10T07:03:44;1.23;;;0.95;;
40022;SDS011;25713;-35.352;149.036;2023-05-10T07:06:14;1.20;;;0.90;;
40022;SDS011;25713;-35.352;149.036;2023-05-10T07:08:45;1.75;;;1.00;;
40022;SDS011;25713;-35.352;149.036;2023-05-10T07:11:15;1.27;;;1.00;;
40022;SDS011;25713;-35.352;149.036;2023-05-10T07:13:44;1.98;;;1.23;;
40022;SDS011;25713;-35.352;149.036;2023-05-10T07:16:14;1.60;;;1.20;;
40022;SDS011;25713;-35.352;149.036;2023-05-10T07:18:44;2.00;;;1.30;;
40022;SDS011;25713;-35.352;149.036;2023-05-10T07:21:13;1.15;;;1.00;;
40022;SDS011;25713;-35.352;149.036;2023-05-10T07:23:43;1.20;;;0.93;;
40022;SDS011;25713;-35.352;149.036;2023-05-10T07:26:14;2.03;;;1.00;;
40022;SDS011;25713;-35.352;149.036;2023-05-10T07:28:44;2.55;;;1.30;;
40022;SDS011;25713;-35.352;149.036;2023-05-10T07:31:13;1.42;;;1.10;;
40022;SDS011;25713;-35.352;149.036;2023-05-10T07:33:43;1.23;;;1.00;;
40022;SDS011;25713;-35.352;149.036;2023-05-10T07:36:12;1.88;;;1.20;;
40022;SDS011;25713;-35.352;149.036;2023-05-10T07:38:42;1.88;;;1.45;;
40022;SDS011;25713;-35.352;149.036;2023-05-10T07:41:13;2.55;;;1.10;;
40022;SDS011;25713;-35.352;149.036;2023-05-10T07:43:43;2.30;;;1.27;;
40022;SDS011;25713;-35.352;149.036;2023-05-10T07:46:12;1.40;;;1.27;;
40022;SDS011;25713;-35.352;149.036;2023-05-10T07:48:41;1.45;;;1.33;;
40022;SDS011;25713;-35.352;149.036;2023-05-10T07:53:42;1.67;;;1.27;;
40022;SDS011;25713;-35.352;149.036;2023-05-10T07:56:23;1.55;;;1.20;;
40022;SDS011;25713;-35.352;149.036;2023-05-10T07:58:54;2.25;;;1.20;;
40022;SDS011;25713;-35.352;149.036;2023-05-10T08:01:23;2.13;;;1.45;;
40022;SDS011;25713;-35.352;149.036;2023-05-10T08:03:53;3.17;;;1.40;;
40022;SDS011;25713;-35.352;149.036;2023-05-10T08:06:22;1.52;;;1.27;;
40022;SDS011;25713;-35.352;149.036;2023-05-10T08:08:52;2.00;;;1.40;;
40022;SDS011;25713;-35.352;149.036;2023-05-10T08:11:23;1.40;;;1.00;;
40022;SDS011;25713;-35.352;149.036;2023-05-10T08:13:53;1.88;;;1.45;;
40022;SDS011;25713;-35.352;149.036;2023-05-10T08:16:23;1.48;;;0.93;;
40022;SDS011;25713;-35.352;149.036;2023-05-10T08:18:52;1.73;;;1.20;;
40022;SDS011;25713;-35.352;149.036;2023-05-10T08:21:22;1.58;;;1.10;;
40022;SDS011;25713;-35.352;149.036;2023-05-10T08:23:51;2.25;;;1.30;;
40022;SDS011;25713;-35.352;149.036;2023-05-10T08:26:21;1.65;;;1.10;;
40022;SDS011;25713;-35.352;149.036;2023-05-10T08:28:52;1.40;;;1.17;;
40022;SDS011;25713;-35.352;149.036;2023-05-10T08:31:21;1.98;;;1.40;;
40022;SDS011;25713;-35.352;149.036;2023-05-10T08:33:51;1.42;;;1.23;;
40022;SDS011;25713;-35.352;149.036;2023-05-10T08:36:20;2.00;;;1.15;;
40022;SDS011;25713;-35.352;149.036;2023-05-10T08:38:50;1.67;;;1.27;;
40022;SDS011;25713;-35.352;149.036;2023-05-10T08:41:20;1.27;;;1.02;;
40022;SDS011;25713;-35.352;149.036;2023-05-10T08:43:52;2.38;;;1.20;;
40022;SDS011;25713;-35.352;149.036;2023-05-10T08:46:22;1.83;;;1.27;;
40022;SDS011;25713;-35.352;149.036;2023-05-10T08:48:54;1.40;;;1.03;;
40022;SDS011;25713;-35.352;149.036;2023-05-10T08:51:25;1.88;;;1.10;;
40022;SDS011;25713;-35.352;149.036;2023-05-10T08:53:57;1.80;;;1.30;;
40022;SDS011;25713;-35.352;149.036;2023-05-10T08:56:29;1.75;;;1.02;;
40022;SDS011;25713;-35.352;149.036;2023-05-10T08:58:59;1.38;;;1.00;;
40022;SDS011;25713;-35.352;149.036;2023-05-10T09:01:28;1.65;;;1.33;;
40022;SDS011;25713;-35.352;149.036;2023-05-10T09:04:03;1.60;;;1.05;;
40022;SDS011;25713;-35.352;149.036;2023-05-10T09:06:32;1.58;;;1.27;;
40022;SDS011;25713;-35.352;149.036;2023-05-10T09:09:02;2.10;;;1.35;;
40022;SDS011;25713;-35.352;149.036;2023-05-10T09:11:34;2.05;;;1.10;;
40022;SDS011;25713;-35.352;149.036;2023-05-10T09:14:04;2.22;;;1.25;;
40022;SDS011;25713;-35.352;149.036;2023-05-10T09:16:33;1.90;;;1.50;;
40022;SDS011;25713;-35.352;149.036;2023-05-10T09:19:03;2.13;;;1.50;;
40022;SDS011;25713;-35.352;149.036;2023-05-10T09:21:33;1.75;;;1.30;;
40022;SDS011;25713;-35.352;149.036;2023-05-10T09:24:03;4.82;;;1.40;;
40022;SDS011;25713;-35.352;149.036;2023-05-10T09:26:39;2.22;;;1.20;;
40022;SDS011;25713;-35.352;149.036;2023-05-10T09:29:14;1.85;;;1.30;;
40022;SDS011;25713;-35.352;149.036;2023-05-10T09:31:44;1.70;;;1.23;;
40022;SDS011;25713;-35.352;149.036;2023-05-10T09:34:16;1.60;;;1.30;;
40022;SDS011;25713;-35.352;149.036;2023-05-10T09:36:53;1.88;;;1.40;;
40022;SDS011;25713;-35.352;149.036;2023-05-10T09:39:30;2.00;;;1.40;;
40022;SDS011;25713;-35.352;149.036;2023-05-10T09:42:03;2.50;;;1.70;;
40022;SDS011;25713;-35.352;149.036;2023-05-10T09:44:33;1.48;;;1.27;;
40022;SDS011;25713;-35.352;149.036;2023-05-10T09:47:03;2.45;;;1.30;;
40022;SDS011;25713;-35.352;149.036;2023-05-10T09:49:33;2.88;;;1.60;;
40022;SDS011;25713;-35.352;149.036;2023-05-10T09:52:04;2.47;;;1.40;;
40022;SDS011;25713;-35.352;149.036;2023-05-10T09:54:34;2.25;;;1.30;;
40022;SDS011;25713;-35.352;149.036;2023-05-10T09:57:06;2.20;;;1.30;;
40022;SDS011;25713;-35.352;149.036;2023-05-10T09:59:48;2.47;;;1.50;;
40022;SDS011;25713;-35.352;149.036;2023-05-10T10:02:18;1.85;;;1.30;;
40022;SDS011;25713;-35.352;149.036;2023-05-10T10:04:49;1.80;;;1.30;;
40022;SDS011;25713;-35.352;149.036;2023-05-10T10:07:22;1.95;;;1.50;;
40022;SDS011;25713;-35.352;149.036;2023-05-10T10:09:52;1.73;;;1.45;;
40022;SDS011;25713;-35.352;149.036;2023-05-10T10:12:25;2.20;;;1.65;;
40022;SDS011;25713;-35.352;149.036;2023-05-10T10:14:55;2.22;;;1.77;;
40022;SDS011;25713;-35.352;149.036;2023-05-10T10:17:26;2.42;;;1.73;;
40022;SDS011;25713;-35.352;149.036;2023-05-10T10:19:57;2.38;;;1.42;;
40022;SDS011;25713;-35.352;149.036;2023-05-10T10:22:27;2.38;;;1.70;;
40022;SDS011;25713;-35.352;149.036;2023-05-10T10:24:57;2.92;;;1.70;;
40022;SDS011;25713;-35.352;149.036;2023-05-10T10:27:34;2.05;;;1.40;;
40022;SDS011;25713;-35.352;149.036;2023-05-10T10:30:13;2.67;;;1.58;;
40022;SDS011;25713;-35.352;149.036;2023-05-10T10:33:06;2.40;;;1.70;;
40022;SDS011;25713;-35.352;149.036;2023-05-10T10:35:58;2.70;;;1.60;;
40022;SDS011;25713;-35.352;149.036;2023-05-10T10:38:36;2.60;;;1.85;;
40022;SDS011;25713;-35.352;149.036;2023-05-10T10:41:27;2.03;;;1.52;;
40022;SDS011;25713;-35.352;149.036;2023-05-10T10:47:02;2.40;;;1.75;;
40022;SDS011;25713;-35.352;149.036;2023-05-10T10:49:42;3.65;;;1.70;;
40022;SDS011;25713;-35.352;149.036;2023-05-10T10:52:21;3.88;;;1.80;;
40022;SDS011;25713;-35.352;149.036;2023-05-10T10:54:52;2.00;;;1.42;;
40022;SDS011;25713;-35.352;149.036;2023-05-10T10:57:26;1.85;;;1.50;;
40022;SDS011;25713;-35.352;149.036;2023-05-10T11:02:52;2.33;;;1.30;;
40022;SDS011;25713;-35.352;149.036;2023-05-10T11:05:34;2.08;;;1.50;;
40022;SDS011;25713;-35.352;149.036;2023-05-10T11:08:08;2.47;;;1.58;;
40022;SDS011;25713;-35.352;149.036;2023-05-10T11:10:40;1.70;;;1.35;;
40022;SDS011;25713;-35.352;149.036;2023-05-10T11:13:21;2.78;;;1.80;;
40022;SDS011;25713;-35.352;149.036;2023-05-10T11:15:59;1.75;;;1.35;;
40022;SDS011;25713;-35.352;149.036;2023-05-10T11:21:28;2.33;;;1.80;;
40022;SDS011;25713;-35.352;149.036;2023-05-10T11:23:58;3.50;;;1.70;;
40022;SDS011;25713;-35.352;149.036;2023-05-10T11:26:30;2.78;;;1.70;;
40022;SDS011;25713;-35.352;149.036;2023-05-10T11:29:01;2.00;;;1.70;;
40022;SDS011;25713;-35.352;149.036;2023-05-10T11:31:34;2.42;;;1.67;;
40022;SDS011;25713;-35.352;149.036;2023-05-10T11:34:09;2.15;;;1.77;;
40022;SDS011;25713;-35.352;149.036;2023-05-10T11:36:39;2.00;;;1.70;;
40022;SDS011;25713;-35.352;149.036;2023-05-10T11:39:08;3.78;;;1.80;;
40022;SDS011;25713;-35.352;149.036;2023-05-10T11:41:38;2.33;;;1.67;;
40022;SDS011;25713;-35.352;149.036;2023-05-10T11:44:09;2.55;;;1.65;;
40022;SDS011;25713;-35.352;149.036;2023-05-10T11:46:40;2.50;;;1.77;;
40022;SDS011;25713;-35.352;149.036;2023-05-10T11:49:09;2.97;;;1.63;;
40022;SDS011;25713;-35.352;149.036;2023-05-10T11:51:40;2.38;;;1.67;;
40022;SDS011;25713;-35.352;149.036;2023-05-10T11:54:09;3.03;;;1.70;;
40022;SDS011;25713;-35.352;149.036;2023-05-10T11:56:39;2.38;;;1.92;;
40022;SDS011;25713;-35.352;149.036;2023-05-10T11:59:09;2.97;;;1.92;;
40022;SDS011;25713;-35.352;149.036;2023-05-10T12:01:43;2.65;;;1.88;;
40022;SDS011;25713;-35.352;149.036;2023-05-10T12:04:13;2.60;;;1.77;;
40022;SDS011;25713;-35.352;149.036;2023-05-10T12:06:43;2.28;;;1.60;;
40022;SDS011;25713;-35.352;149.036;2023-05-10T12:09:12;2.55;;;1.67;;
40022;SDS011;25713;-35.352;149.036;2023-05-10T12:11:42;2.65;;;1.98;;
40022;SDS011;25713;-35.352;149.036;2023-05-10T12:14:11;3.15;;;1.95;;
40022;SDS011;25713;-35.352;149.036;2023-05-10T12:16:43;2.30;;;1.80;;
40022;SDS011;25713;-35.352;149.036;2023-05-10T12:19:12;3.90;;;1.80;;
40022;SDS011;25713;-35.352;149.036;2023-05-10T12:21:47;2.65;;;1.92;;
40022;SDS011;25713;-35.352;149.036;2023-05-10T12:24:16;3.35;;;1.80;;
40022;SDS011;25713;-35.352;149.036;2023-05-10T12:26:46;2.67;;;1.88;;
40022;SDS011;25713;-35.352;149.036;2023-05-10T12:29:16;3.70;;;1.60;;
40022;SDS011;25713;-35.352;149.036;2023-05-10T12:31:52;3.10;;;1.90;;
40022;SDS011;25713;-35.352;149.036;2023-05-10T12:34:30;2.50;;;1.70;;
40022;SDS011;25713;-35.352;149.036;2023-05-10T12:37:00;2.85;;;1.80;;
40022;SDS011;25713;-35.352;149.036;2023-05-10T12:39:40;3.58;;;1.83;;
40022;SDS011;25713;-35.352;149.036;2023-05-10T12:42:10;3.15;;;1.77;;
40022;SDS011;25713;-35.352;149.036;2023-05-10T12:44:39;2.65;;;1.70;;
40022;SDS011;25713;-35.352;149.036;2023-05-10T12:47:11;2.88;;;1.67;;
40022;SDS011;25713;-35.352;149.036;2023-05-10T12:49:40;3.63;;;1.85;;
40022;SDS011;25713;-35.352;149.036;2023-05-10T12:52:10;4.28;;;1.98;;
40022;SDS011;25713;-35.352;149.036;2023-05-10T12:54:39;3.13;;;2.10;;
40022;SDS011;25713;-35.352;149.036;2023-05-10T12:57:09;2.88;;;1.67;;
40022;SDS011;25713;-35.352;149.036;2023-05-10T12:59:38;3.58;;;1.80;;
40022;SDS011;25713;-35.352;149.036;2023-05-10T13:02:08;3.28;;;1.70;;
40022;SDS011;25713;-35.352;149.036;2023-05-10T13:04:39;2.83;;;1.77;;
40022;SDS011;25713;-35.352;149.036;2023-05-10T13:07:09;3.22;;;1.60;;
40022;SDS011;25713;-35.352;149.036;2023-05-10T13:09:38;2.28;;;1.70;;
40022;SDS011;25713;-35.352;149.036;2023-05-10T13:12:08;5.32;;;2.53;;
40022;SDS011;25713;-35.352;149.036;2023-05-10T13:14:37;2.22;;;1.58;;
40022;SDS011;25713;-35.352;149.036;2023-05-10T13:17:07;2.85;;;1.70;;
40022;SDS011;25713;-35.352;149.036;2023-05-10T13:19:39;2.28;;;1.60;;
40022;SDS011;25713;-35.352;149.036;2023-05-10T13:22:08;2.47;;;1.48;;
40022;SDS011;25713;-35.352;149.036;2023-05-10T13:24:37;1.90;;;1.52;;
40022;SDS011;25713;-35.352;149.036;2023-05-10T13:27:07;3.80;;;1.67;;
40022;SDS011;25713;-35.352;149.036;2023-05-10T13:29:36;2.03;;;1.40;;
40022;SDS011;25713;-35.352;149.036;2023-05-10T13:32:06;2.88;;;1.20;;
40022;SDS011;25713;-35.352;149.036;2023-05-10T13:34:35;2.65;;;1.48;;
40022;SDS011;25713;-35.352;149.036;2023-05-10T13:37:08;2.20;;;1.50;;
40022;SDS011;25713;-35.352;149.036;2023-05-10T13:39:37;1.70;;;1.27;;
40022;SDS011;25713;-35.352;149.036;2023-05-10T13:42:07;2.10;;;1.50;;
40022;SDS011;25713;-35.352;149.036;2023-05-10T13:44:36;1.88;;;1.30;;
40022;SDS011;25713;-35.352;149.036;2023-05-10T13:47:06;3.25;;;1.48;;
40022;SDS011;25713;-35.352;149.036;2023-05-10T13:49:36;1.88;;;1.42;;
40022;SDS011;25713;-35.352;149.036;2023-05-10T13:54:37;2.10;;;1.55;;
40022;SDS011;25713;-35.352;149.036;2023-05-10T13:57:06;2.35;;;1.65;;
40022;SDS011;25713;-35.352;149.036;2023-05-10T13:59:35;2.30;;;1.50;;
40022;SDS011;25713;-35.352;149.036;2023-05-10T14:02:05;1.80;;;1.42;;
40022;SDS011;25713;-35.352;149.036;2023-05-10T14:04:35;1.60;;;1.33;;
40022;SDS011;25713;-35.352;149.036;2023-05-10T14:07:06;2.05;;;1.40;;
40022;SDS011;25713;-35.352;149.036;2023-05-10T14:09:36;1.67;;;1.38;;
40022;SDS011;25713;-35.352;149.036;2023-05-10T14:12:05;2.05;;;1.35;;
40022;SDS011;25713;-35.352;149.036;2023-05-10T14:14:35;5.55;;;1.60;;
40022;SDS011;25713;-35.352;149.036;2023-05-10T14:17:04;2.58;;;1.80;;
40022;SDS011;25713;-35.352;149.036;2023-05-10T14:19:34;2.03;;;1.40;;
40022;SDS011;25713;-35.352;149.036;2023-05-10T14:22:05;2.05;;;1.30;;
40022;SDS011;25713;-35.352;149.036;2023-05-10T14:24:35;2.40;;;1.58;;
40022;SDS011;25713;-35.352;149.036;2023-05-10T14:27:05;3.22;;;1.73;;
40022;SDS011;25713;-35.352;149.036;2023-05-10T14:29:35;1.98;;;1.33;;
40022;SDS011;25713;-35.352;149.036;2023-05-10T14:32:04;2.60;;;1.67;;
40022;SDS011;25713;-35.352;149.036;2023-05-10T14:34:34;2.13;;;1.55;;
40022;SDS011;25713;-35.352;149.036;2023-05-10T14:37:05;1.67;;;1.35;;
40022;SDS011;25713;-35.352;149.036;2023-05-10T14:39:37;2.33;;;1.50;;
40022;SDS011;25713;-35.352;149.036;2023-05-10T14:42:07;2.15;;;1.45;;
40022;SDS011;25713;-35.352;149.036;2023-05-10T14:44:36;2.40;;;1.50;;
40022;SDS011;25713;-35.352;149.036;2023-05-10T14:47:05;2.22;;;1.60;;
40022;SDS011;25713;-35.352;149.036;2023-05-10T16:01:29;2.20;;;1.90;;
40022;SDS011;25713;-35.352;149.036;2023-05-10T16:03:59;2.28;;;1.70;;
40022;SDS011;25713;-35.352;149.036;2023-05-10T16:06:29;2.35;;;2.00;;
40022;SDS011;25713;-35.352;149.036;2023-05-10T16:08:58;2.70;;;2.03;;